sensor_id;sensor_type;location;lat;lon;timestamp;pressure;altitude;pressure_sealevel;temperature;humidity
43814;BME280;29669;55.706;37.656;2022-09-13T00:00:34;100017.41;;;11.79;52.91
43814;BME280;29669;55.706;37.656;2022-09-13T00:03:56;100015.09;;;11.84;52.79
43814;BME280;29669;55.706;37.656;2022-09-13T00:07:17;100018.19;;;11.87;52.89
43814;BME280;29669;55.706;37.656;2022-09-13T00:10:39;99999.81;;;11.89;52.69
43814;BME280;29669;55.706;37.656;2022-09-13T00:13:54;99997.22;;;11.89;52.69
43814;BME280;29669;55.706;37.656;2022-09-13T00:17:15;100011.69;;;11.83;52.77
43814;BME280;29669;55.706;37.656;2022-09-13T00:20:36;99998.84;;;11.74;53.00
43814;BME280;29669;55.706;37.656;2022-09-13T00:23:57;100004.53;;;11.61;53.20
43814;BME280;29669;55.706;37.656;2022-09-13T00:27:18;100002.56;;;11.47;53.24
43814;BME280;29669;55.706;37.656;2022-09-13T00:30:39;99998.38;;;11.38;53.42
43814;BME280;29669;55.706;37.656;2022-09-13T00:34:00;99999.16;;;11.30;53.54
43814;BME280;29669;55.706;37.656;2022-09-13T00:37:21;99998.19;;;11.23;53.62
43814;BME280;29669;55.706;37.656;2022-09-13T00:40:42;99995.13;;;11.20;53.74
43814;BME280;29669;55.706;37.656;2022-09-13T00:44:04;99991.03;;;11.17;53.77
43814;BME280;29669;55.706;37.656;2022-09-13T00:50:58;100004.38;;;11.14;53.87
43814;BME280;29669;55.706;37.656;2022-09-13T00:54:12;99999.00;;;11.08;53.88
43814;BME280;29669;55.706;37.656;2022-09-13T00:57:35;99995.59;;;10.99;53.95
43814;BME280;29669;55.706;37.656;2022-09-13T01:00:57;99996.38;;;10.92;54.26
43814;BME280;29669;55.706;37.656;2022-09-13T01:04:20;100003.50;;;10.90;54.15
43814;BME280;29669;55.706;37.656;2022-09-13T01:07:42;99999.44;;;10.87;54.41
43814;BME280;29669;55.706;37.656;2022-09-13T01:11:05;99994.41;;;10.86;54.68
43814;BME280;29669;55.706;37.656;2022-09-13T01:14:30;99993.59;;;10.85;54.60
43814;BME280;29669;55.706;37.656;2022-09-13T01:17:53;100003.66;;;10.80;54.64
43814;BME280;29669;55.706;37.656;2022-09-13T01:29:33;100001.81;;;10.65;54.89
43814;BME280;29669;55.706;37.656;2022-09-13T01:45:03;99990.97;;;10.77;54.78
43814;BME280;29669;55.706;37.656;2022-09-13T01:56:03;99986.66;;;10.94;54.73
43814;BME280;29669;55.706;37.656;2022-09-13T02:03:17;99989.41;;;11.00;54.58
43814;BME280;29669;55.706;37.656;2022-09-13T02:06:46;99980.31;;;11.04;54.52
43814;BME280;29669;55.706;37.656;2022-09-13T02:10:21;99983.09;;;11.03;54.58
43814;BME280;29669;55.706;37.656;2022-09-13T02:17:15;99978.19;;;10.84;54.78
43814;BME280;29669;55.706;37.656;2022-09-13T02:20:43;99979.28;;;10.73;54.98
43814;BME280;29669;55.706;37.656;2022-09-13T02:24:09;99978.78;;;10.62;55.21
43814;BME280;29669;55.706;37.656;2022-09-13T02:27:32;99972.06;;;10.51;55.45
43814;BME280;29669;55.706;37.656;2022-09-13T02:30:56;99968.66;;;10.43;55.45
43814;BME280;29669;55.706;37.656;2022-09-13T02:34:26;99975.75;;;10.32;55.50
43814;BME280;29669;55.706;37.656;2022-09-13T02:37:56;99975.91;;;10.31;55.78
43814;BME280;29669;55.706;37.656;2022-09-13T02:41:38;99972.00;;;10.27;55.71
43814;BME280;29669;55.706;37.656;2022-09-13T02:45:04;99961.91;;;10.24;55.75
43814;BME280;29669;55.706;37.656;2022-09-13T02:48:36;99967.59;;;10.19;55.90
43814;BME280;29669;55.706;37.656;2022-09-13T02:59:24;99966.97;;;10.25;56.22
43814;BME280;29669;55.706;37.656;2022-09-13T03:02:45;99961.28;;;10.30;56.17
43814;BME280;29669;55.706;37.656;2022-09-13T03:06:08;99952.88;;;10.36;56.22
43814;BME280;29669;55.706;37.656;2022-09-13T03:09:30;99950.16;;;10.46;56.03
43814;BME280;29669;55.706;37.656;2022-09-13T03:16:41;99960.28;;;10.65;55.87
43814;BME280;29669;55.706;37.656;2022-09-13T03:27:34;99957.25;;;10.93;55.52
43814;BME280;29669;55.706;37.656;2022-09-13T03:31:08;99950.75;;;11.05;55.30
43814;BME280;29669;55.706;37.656;2022-09-13T03:38:08;99948.00;;;11.15;55.19
43814;BME280;29669;55.706;37.656;2022-09-13T03:41:36;99953.38;;;11.21;55.06
43814;BME280;29669;55.706;37.656;2022-09-13T03:45:00;99948.03;;;11.31;55.07
43814;BME280;29669;55.706;37.656;2022-09-13T03:48:22;99954.00;;;11.39;54.92
43814;BME280;29669;55.706;37.656;2022-09-13T03:51:46;99959.22;;;11.48;54.86
43814;BME280;29669;55.706;37.656;2022-09-13T03:55:08;99944.91;;;11.52;54.81
43814;BME280;29669;55.706;37.656;2022-09-13T03:58:29;99940.03;;;11.65;54.57
43814;BME280;29669;55.706;37.656;2022-09-13T04:01:50;99938.56;;;11.78;54.41
43814;BME280;29669;55.706;37.656;2022-09-13T04:05:11;99926.19;;;11.88;54.17
43814;BME280;29669;55.706;37.656;2022-09-13T04:08:32;99931.81;;;12.00;54.15
43814;BME280;29669;55.706;37.656;2022-09-13T04:11:53;99933.94;;;12.04;54.00
43814;BME280;29669;55.706;37.656;2022-09-13T04:15:14;99943.31;;;12.13;54.03
43814;BME280;29669;55.706;37.656;2022-09-13T04:18:35;99948.97;;;12.25;53.82
43814;BME280;29669;55.706;37.656;2022-09-13T04:21:56;99934.28;;;12.32;53.67
43814;BME280;29669;55.706;37.656;2022-09-13T04:25:17;99939.81;;;12.37;53.45
43814;BME280;29669;55.706;37.656;2022-09-13T04:28:38;99941.91;;;12.42;53.55
43814;BME280;29669;55.706;37.656;2022-09-13T04:31:59;99942.19;;;12.55;53.40
43814;BME280;29669;55.706;37.656;2022-09-13T04:35:20;99937.56;;;12.65;53.36
43814;BME280;29669;55.706;37.656;2022-09-13T04:38:45;99947.34;;;12.85;53.04
43814;BME280;29669;55.706;37.656;2022-09-13T04:42:06;99941.53;;;13.06;52.73
43814;BME280;29669;55.706;37.656;2022-09-13T04:45:27;99944.44;;;13.11;52.16
43814;BME280;29669;55.706;37.656;2022-09-13T04:48:49;99945.81;;;13.21;52.47
43814;BME280;29669;55.706;37.656;2022-09-13T04:52:10;99953.94;;;13.27;52.28
43814;BME280;29669;55.706;37.656;2022-09-13T04:55:31;99945.31;;;13.26;52.48
43814;BME280;29669;55.706;37.656;2022-09-13T04:58:53;99949.59;;;13.19;52.24
43814;BME280;29669;55.706;37.656;2022-09-13T05:02:15;99953.00;;;13.19;52.19
43814;BME280;29669;55.706;37.656;2022-09-13T05:05:36;99956.69;;;13.25;52.27
43814;BME280;29669;55.706;37.656;2022-09-13T05:08:57;99954.84;;;13.34;52.20
43814;BME280;29669;55.706;37.656;2022-09-13T05:12:18;99953.53;;;13.38;52.01
43814;BME280;29669;55.706;37.656;2022-09-13T05:15:39;99946.97;;;13.42;52.01
43814;BME280;29669;55.706;37.656;2022-09-13T05:19:00;99951.81;;;13.45;52.12
43814;BME280;29669;55.706;37.656;2022-09-13T05:22:21;99941.13;;;13.54;51.95
43814;BME280;29669;55.706;37.656;2022-09-13T05:25:42;99948.06;;;13.62;51.61
43814;BME280;29669;55.706;37.656;2022-09-13T05:29:03;99952.91;;;13.65;51.48
43814;BME280;29669;55.706;37.656;2022-09-13T05:32:24;99941.91;;;13.77;51.37
43814;BME280;29669;55.706;37.656;2022-09-13T05:35:46;99954.03;;;13.85;51.41
43814;BME280;29669;55.706;37.656;2022-09-13T05:39:12;99952.97;;;13.94;51.11
43814;BME280;29669;55.706;37.656;2022-09-13T05:42:56;99960.06;;;14.00;50.91
43814;BME280;29669;55.706;37.656;2022-09-13T05:46:18;99957.72;;;14.05;50.98
43814;BME280;29669;55.706;37.656;2022-09-13T05:49:40;99958.91;;;14.17;50.81
43814;BME280;29669;55.706;37.656;2022-09-13T05:53:16;99964.31;;;14.30;50.34
43814;BME280;29669;55.706;37.656;2022-09-13T05:56:37;99946.69;;;14.32;50.17
43814;BME280;29669;55.706;37.656;2022-09-13T05:59:58;99951.63;;;14.27;50.00
43814;BME280;29669;55.706;37.656;2022-09-13T06:03:19;99947.75;;;14.23;49.94
43814;BME280;29669;55.706;37.656;2022-09-13T06:06:40;99957.47;;;14.29;49.86
43814;BME280;29669;55.706;37.656;2022-09-13T06:10:02;99953.16;;;14.36;49.87
43814;BME280;29669;55.706;37.656;2022-09-13T06:13:23;99945.91;;;14.53;49.73
43814;BME280;29669;55.706;37.656;2022-09-13T06:16:45;99953.09;;;14.65;49.50
43814;BME280;29669;55.706;37.656;2022-09-13T06:20:07;99951.91;;;14.68;49.18
43814;BME280;29669;55.706;37.656;2022-09-13T06:23:29;99949.00;;;14.77;49.12
43814;BME280;29669;55.706;37.656;2022-09-13T06:26:50;99951.56;;;14.92;49.11
43814;BME280;29669;55.706;37.656;2022-09-13T06:30:11;99950.75;;;15.13;48.61
43814;BME280;29669;55.706;37.656;2022-09-13T06:33:33;99945.16;;;15.16;48.49
43814;BME280;29669;55.706;37.656;2022-09-13T06:36:55;99941.41;;;15.25;48.75
43814;BME280;29669;55.706;37.656;2022-09-13T06:40:17;99945.41;;;15.42;48.25
43814;BME280;29669;55.706;37.656;2022-09-13T06:43:39;99952.53;;;15.54;47.78
43814;BME280;29669;55.706;37.656;2022-09-13T06:47:00;99941.97;;;15.69;47.72
43814;BME280;29669;55.706;37.656;2022-09-13T06:50:21;99939.25;;;15.83;47.48
43814;BME280;29669;55.706;37.656;2022-09-13T06:53:42;99938.88;;;15.86;47.04
43814;BME280;29669;55.706;37.656;2022-09-13T06:57:04;99932.44;;;15.89;47.11
43814;BME280;29669;55.706;37.656;2022-09-13T07:00:25;99930.06;;;15.94;46.98
43814;BME280;29669;55.706;37.656;2022-09-13T07:07:07;99926.38;;;15.82;46.92
43814;BME280;29669;55.706;37.656;2022-09-13T07:10:28;99925.47;;;16.02;46.60
43814;BME280;29669;55.706;37.656;2022-09-13T07:13:50;99921.03;;;16.03;46.46
43814;BME280;29669;55.706;37.656;2022-09-13T07:17:12;99914.41;;;16.07;46.51
43814;BME280;29669;55.706;37.656;2022-09-13T07:20:26;99905.25;;;16.31;46.21
43814;BME280;29669;55.706;37.656;2022-09-13T07:23:47;99904.34;;;16.51;45.81
43814;BME280;29669;55.706;37.656;2022-09-13T07:27:08;99901.75;;;16.64;45.45
43814;BME280;29669;55.706;37.656;2022-09-13T07:30:29;99908.66;;;16.78;45.39
43814;BME280;29669;55.706;37.656;2022-09-13T07:33:57;99911.69;;;17.02;45.00
43814;BME280;29669;55.706;37.656;2022-09-13T07:37:19;99895.75;;;16.97;44.54
43814;BME280;29669;55.706;37.656;2022-09-13T07:40:40;99894.34;;;16.87;44.95
43814;BME280;29669;55.706;37.656;2022-09-13T07:44:01;99890.09;;;16.93;44.53
43814;BME280;29669;55.706;37.656;2022-09-13T07:47:23;99883.25;;;16.85;44.41
43814;BME280;29669;55.706;37.656;2022-09-13T07:50:44;99886.63;;;16.66;44.40
43814;BME280;29669;55.706;37.656;2022-09-13T07:54:17;99875.47;;;16.38;44.40
43814;BME280;29669;55.706;37.656;2022-09-13T07:57:38;99885.00;;;16.05;44.94
43814;BME280;29669;55.706;37.656;2022-09-13T08:01:08;99873.72;;;15.64;45.54
43814;BME280;29669;55.706;37.656;2022-09-13T08:04:29;99874.03;;;15.27;46.03
43814;BME280;29669;55.706;37.656;2022-09-13T08:07:50;99879.84;;;15.01;46.59
43814;BME280;29669;55.706;37.656;2022-09-13T08:11:05;99873.97;;;14.92;46.88
43814;BME280;29669;55.706;37.656;2022-09-13T08:14:26;99869.72;;;14.91;46.97
43814;BME280;29669;55.706;37.656;2022-09-13T08:17:47;99866.44;;;15.04;46.81
43814;BME280;29669;55.706;37.656;2022-09-13T08:21:08;99866.34;;;15.19;46.66
43814;BME280;29669;55.706;37.656;2022-09-13T08:24:30;99872.06;;;15.35;46.37
43814;BME280;29669;55.706;37.656;2022-09-13T08:27:51;99862.97;;;15.52;45.89
43814;BME280;29669;55.706;37.656;2022-09-13T08:31:14;99869.56;;;15.76;45.92
43814;BME280;29669;55.706;37.656;2022-09-13T08:34:35;99855.56;;;15.96;45.63
43814;BME280;29669;55.706;37.656;2022-09-13T08:37:56;99853.59;;;16.12;45.50
43814;BME280;29669;55.706;37.656;2022-09-13T08:44:53;99847.59;;;16.24;45.05
43814;BME280;29669;55.706;37.656;2022-09-13T08:48:17;99841.75;;;16.22;44.89
43814;BME280;29669;55.706;37.656;2022-09-13T08:51:44;99837.53;;;16.28;44.92
43814;BME280;29669;55.706;37.656;2022-09-13T08:55:22;99823.28;;;16.37;44.50
43814;BME280;29669;55.706;37.656;2022-09-13T09:05:57;99823.09;;;16.58;44.00
43814;BME280;29669;55.706;37.656;2022-09-13T09:09:19;99806.59;;;16.64;43.69
43814;BME280;29669;55.706;37.656;2022-09-13T09:13:08;99809.81;;;16.66;43.47
43814;BME280;29669;55.706;37.656;2022-09-13T09:16:40;99806.78;;;16.62;43.57
43814;BME280;29669;55.706;37.656;2022-09-13T09:20:20;99802.34;;;16.56;43.44
43814;BME280;29669;55.706;37.656;2022-09-13T09:23:48;99796.13;;;16.57;43.44
43814;BME280;29669;55.706;37.656;2022-09-13T09:27:14;99793.88;;;16.67;43.31
43814;BME280;29669;55.706;37.656;2022-09-13T09:30:42;99795.50;;;17.08;42.96
43814;BME280;29669;55.706;37.656;2022-09-13T09:41:30;99779.94;;;18.58;41.49
43814;BME280;29669;55.706;37.656;2022-09-13T09:44:55;99777.91;;;18.85;41.02
43814;BME280;29669;55.706;37.656;2022-09-13T09:48:21;99777.59;;;19.18;40.57
43814;BME280;29669;55.706;37.656;2022-09-13T09:51:44;99770.75;;;19.35;40.27
43814;BME280;29669;55.706;37.656;2022-09-13T09:55:32;99762.56;;;19.61;40.05
43814;BME280;29669;55.706;37.656;2022-09-13T09:58:54;99760.31;;;19.46;39.81
43814;BME280;29669;55.706;37.656;2022-09-13T10:02:18;99766.53;;;19.34;39.73
43814;BME280;29669;55.706;37.656;2022-09-13T10:05:40;99759.41;;;19.16;39.89
43814;BME280;29669;55.706;37.656;2022-09-13T10:09:17;99765.88;;;18.96;40.22
43814;BME280;29669;55.706;37.656;2022-09-13T10:12:39;99761.69;;;18.88;40.19
43814;BME280;29669;55.706;37.656;2022-09-13T10:16:20;99767.50;;;18.72;39.98
43814;BME280;29669;55.706;37.656;2022-09-13T10:23:18;99756.78;;;18.49;40.09
43814;BME280;29669;55.706;37.656;2022-09-13T10:26:40;99755.97;;;18.48;40.06
43814;BME280;29669;55.706;37.656;2022-09-13T10:30:02;99751.56;;;18.42;39.74
43814;BME280;29669;55.706;37.656;2022-09-13T10:33:29;99752.03;;;18.26;40.07
43814;BME280;29669;55.706;37.656;2022-09-13T10:40:35;99752.88;;;17.89;40.12
43814;BME280;29669;55.706;37.656;2022-09-13T10:43:58;99750.09;;;17.77;40.31
43814;BME280;29669;55.706;37.656;2022-09-13T10:47:33;99750.09;;;17.77;40.10
43814;BME280;29669;55.706;37.656;2022-09-13T10:51:01;99741.84;;;17.74;40.13
43814;BME280;29669;55.706;37.656;2022-09-13T10:54:22;99735.97;;;17.72;40.05
43814;BME280;29669;55.706;37.656;2022-09-13T10:57:48;99737.81;;;17.71;39.98
43814;BME280;29669;55.706;37.656;2022-09-13T11:23:33;99718.53;;;17.40;39.96
43814;BME280;29669;55.706;37.656;2022-09-13T11:27:03;99712.44;;;17.46;39.79
43814;BME280;29669;55.706;37.656;2022-09-13T11:30:30;99717.50;;;17.54;39.82
43814;BME280;29669;55.706;37.656;2022-09-13T11:52:17;99693.13;;;17.34;40.07
43814;BME280;29669;55.706;37.656;2022-09-13T12:06:18;99676.81;;;17.19;40.15
43814;BME280;29669;55.706;37.656;2022-09-13T12:09:49;99681.09;;;17.13;40.19
43814;BME280;29669;55.706;37.656;2022-09-13T12:13:20;99677.88;;;17.11;40.27
43814;BME280;29669;55.706;37.656;2022-09-13T12:16:48;99675.88;;;17.07;40.33
43814;BME280;29669;55.706;37.656;2022-09-13T12:20:41;99678.13;;;17.03;40.33
43814;BME280;29669;55.706;37.656;2022-09-13T12:24:11;99669.03;;;16.99;40.43
43814;BME280;29669;55.706;37.656;2022-09-13T12:27:38;99660.97;;;16.94;40.25
43814;BME280;29669;55.706;37.656;2022-09-13T12:31:08;99660.56;;;16.90;40.52
43814;BME280;29669;55.706;37.656;2022-09-13T12:34:45;99654.72;;;16.88;40.31
43814;BME280;29669;55.706;37.656;2022-09-13T12:38:24;99652.13;;;16.88;40.33
43814;BME280;29669;55.706;37.656;2022-09-13T12:45:37;99644.03;;;16.97;40.28
43814;BME280;29669;55.706;37.656;2022-09-13T12:53:05;99643.81;;;17.05;40.06
43814;BME280;29669;55.706;37.656;2022-09-13T13:00:28;99624.63;;;17.04;40.11
43814;BME280;29669;55.706;37.656;2022-09-13T13:07:21;99629.72;;;16.99;39.88
43814;BME280;29669;55.706;37.656;2022-09-13T13:10:43;99625.06;;;16.94;39.93
43814;BME280;29669;55.706;37.656;2022-09-13T13:14:04;99623.06;;;16.90;39.73
43814;BME280;29669;55.706;37.656;2022-09-13T13:17:37;99623.69;;;16.85;39.92
43814;BME280;29669;55.706;37.656;2022-09-13T13:27:41;99610.81;;;16.77;40.13
43814;BME280;29669;55.706;37.656;2022-09-13T13:31:06;99601.97;;;16.72;40.28
43814;BME280;29669;55.706;37.656;2022-09-13T13:34:49;99596.72;;;16.65;40.26
43814;BME280;29669;55.706;37.656;2022-09-13T13:45:24;99594.72;;;16.61;40.11
43814;BME280;29669;55.706;37.656;2022-09-13T13:48:46;99587.09;;;16.59;40.19
43814;BME280;29669;55.706;37.656;2022-09-13T13:55:47;99584.88;;;16.50;40.43
43814;BME280;29669;55.706;37.656;2022-09-13T13:59:14;99564.72;;;16.50;40.34
43814;BME280;29669;55.706;37.656;2022-09-13T14:03:05;99578.41;;;16.52;40.31
43814;BME280;29669;55.706;37.656;2022-09-13T14:06:50;99581.44;;;16.56;40.38
43814;BME280;29669;55.706;37.656;2022-09-13T14:21:08;99589.28;;;16.62;40.32
43814;BME280;29669;55.706;37.656;2022-09-13T14:24:38;99588.06;;;16.58;40.54
43814;BME280;29669;55.706;37.656;2022-09-13T14:28:01;99577.00;;;16.56;40.62
43814;BME280;29669;55.706;37.656;2022-09-13T14:31:22;99586.69;;;16.56;40.38
43814;BME280;29669;55.706;37.656;2022-09-13T14:38:26;99579.66;;;16.50;40.77
43814;BME280;29669;55.706;37.656;2022-09-13T14:41:57;99575.59;;;16.47;40.85
43814;BME280;29669;55.706;37.656;2022-09-13T14:45:32;99574.38;;;16.43;40.81
43814;BME280;29669;55.706;37.656;2022-09-13T14:48:58;99576.22;;;16.36;40.94
43814;BME280;29669;55.706;37.656;2022-09-13T14:52:55;99579.22;;;16.33;41.06
43814;BME280;29669;55.706;37.656;2022-09-13T14:59:51;99574.00;;;16.20;41.21
43814;BME280;29669;55.706;37.656;2022-09-13T15:03:15;99569.59;;;16.14;41.39
43814;BME280;29669;55.706;37.656;2022-09-13T15:06:39;99572.00;;;16.09;41.50
43814;BME280;29669;55.706;37.656;2022-09-13T15:10:23;99563.75;;;16.06;41.47
43814;BME280;29669;55.706;37.656;2022-09-13T15:13:44;99574.03;;;16.00;41.75
43814;BME280;29669;55.706;37.656;2022-09-13T15:17:10;99558.31;;;15.94;41.61
43814;BME280;29669;55.706;37.656;2022-09-13T15:20:51;99559.53;;;15.85;41.78
43814;BME280;29669;55.706;37.656;2022-09-13T15:24:26;99549.88;;;15.79;41.95
43814;BME280;29669;55.706;37.656;2022-09-13T15:27:48;99560.75;;;15.76;41.95
43814;BME280;29669;55.706;37.656;2022-09-13T15:31:11;99560.34;;;15.72;42.07
43814;BME280;29669;55.706;37.656;2022-09-13T15:34:45;99560.94;;;15.68;42.16
43814;BME280;29669;55.706;37.656;2022-09-13T15:38:21;99552.47;;;15.66;42.31
43814;BME280;29669;55.706;37.656;2022-09-13T15:41:38;99549.47;;;15.62;42.38
43814;BME280;29669;55.706;37.656;2022-09-13T15:45:00;99552.66;;;15.58;42.50
43814;BME280;29669;55.706;37.656;2022-09-13T15:48:32;99541.81;;;15.54;42.55
43814;BME280;29669;55.706;37.656;2022-09-13T15:51:55;99537.00;;;15.51;42.67
43814;BME280;29669;55.706;37.656;2022-09-13T15:55:16;99539.00;;;15.49;43.02
43814;BME280;29669;55.706;37.656;2022-09-13T15:58:37;99534.34;;;15.45;43.40
43814;BME280;29669;55.706;37.656;2022-09-13T16:01:59;99537.56;;;15.40;43.61
43814;BME280;29669;55.706;37.656;2022-09-13T16:05:21;99539.72;;;15.37;43.86
43814;BME280;29669;55.706;37.656;2022-09-13T16:08:42;99538.09;;;15.29;44.21
43814;BME280;29669;55.706;37.656;2022-09-13T16:12:03;99540.53;;;15.24;44.60
43814;BME280;29669;55.706;37.656;2022-09-13T16:15:27;99540.69;;;15.16;44.84
43814;BME280;29669;55.706;37.656;2022-09-13T16:18:48;99542.50;;;15.09;45.22
43814;BME280;29669;55.706;37.656;2022-09-13T16:22:09;99547.31;;;15.05;45.60
43814;BME280;29669;55.706;37.656;2022-09-13T16:25:30;99544.50;;;15.00;46.08
43814;BME280;29669;55.706;37.656;2022-09-13T16:28:51;99537.03;;;14.91;46.29
43814;BME280;29669;55.706;37.656;2022-09-13T16:32:12;99531.56;;;14.86;46.62
43814;BME280;29669;55.706;37.656;2022-09-13T16:35:33;99533.56;;;14.84;46.87
43814;BME280;29669;55.706;37.656;2022-09-13T16:38:55;99543.22;;;14.83;46.94
43814;BME280;29669;55.706;37.656;2022-09-13T16:42:16;99527.13;;;14.80;47.13
43814;BME280;29669;55.706;37.656;2022-09-13T16:45:38;99540.78;;;14.75;47.25
43814;BME280;29669;55.706;37.656;2022-09-13T16:49:01;99536.31;;;14.69;47.52
43814;BME280;29669;55.706;37.656;2022-09-13T16:52:23;99533.09;;;14.67;47.85
43814;BME280;29669;55.706;37.656;2022-09-13T16:55:44;99527.25;;;14.65;47.88
43814;BME280;29669;55.706;37.656;2022-09-13T16:59:09;99528.88;;;14.66;47.97
43814;BME280;29669;55.706;37.656;2022-09-13T17:02:30;99519.81;;;14.62;48.46
43814;BME280;29669;55.706;37.656;2022-09-13T17:06:13;99515.38;;;14.56;48.25
43814;BME280;29669;55.706;37.656;2022-09-13T17:09:35;99515.56;;;14.55;48.40
43814;BME280;29669;55.706;37.656;2022-09-13T17:12:57;99512.34;;;14.53;48.50
43814;BME280;29669;55.706;37.656;2022-09-13T17:16:22;99504.88;;;14.50;48.57
43814;BME280;29669;55.706;37.656;2022-09-13T17:19:43;99504.09;;;14.49;48.69
43814;BME280;29669;55.706;37.656;2022-09-13T17:23:05;99500.47;;;14.50;48.73
43814;BME280;29669;55.706;37.656;2022-09-13T17:26:26;99497.25;;;14.48;48.82
43814;BME280;29669;55.706;37.656;2022-09-13T17:29:47;99490.78;;;14.44;49.04
43814;BME280;29669;55.706;37.656;2022-09-13T17:33:08;99485.97;;;14.41;49.24
43814;BME280;29669;55.706;37.656;2022-09-13T17:36:29;99486.38;;;14.38;49.17
43814;BME280;29669;55.706;37.656;2022-09-13T17:39:55;99476.31;;;14.35;49.68
43814;BME280;29669;55.706;37.656;2022-09-13T17:43:17;99482.91;;;14.31;49.65
43814;BME280;29669;55.706;37.656;2022-09-13T17:46:38;99482.66;;;14.26;49.89
43814;BME280;29669;55.706;37.656;2022-09-13T17:50:00;99477.84;;;14.23;50.05
43814;BME280;29669;55.706;37.656;2022-09-13T17:53:22;99468.16;;;14.17;50.43
43814;BME280;29669;55.706;37.656;2022-09-13T17:56:44;99469.53;;;14.13;50.62
43814;BME280;29669;55.706;37.656;2022-09-13T18:00:06;99471.31;;;14.06;51.06
43814;BME280;29669;55.706;37.656;2022-09-13T18:03:28;99466.25;;;14.04;51.41
43814;BME280;29669;55.706;37.656;2022-09-13T18:06:52;99464.88;;;14.02;51.46
43814;BME280;29669;55.706;37.656;2022-09-13T18:10:13;99450.38;;;13.99;51.49
43814;BME280;29669;55.706;37.656;2022-09-13T18:13:54;99449.97;;;13.96;51.61
43814;BME280;29669;55.706;37.656;2022-09-13T18:17:15;99441.53;;;13.94;51.79
43814;BME280;29669;55.706;37.656;2022-09-13T18:26:04;99433.81;;;13.79;52.13
43814;BME280;29669;55.706;37.656;2022-09-13T18:29:26;99434.56;;;13.73;52.34
43814;BME280;29669;55.706;37.656;2022-09-13T18:36:39;99415.63;;;13.58;53.37
43814;BME280;29669;55.706;37.656;2022-09-13T18:39:53;99421.66;;;13.59;53.75
43814;BME280;29669;55.706;37.656;2022-09-13T18:43:14;99420.63;;;13.60;53.96
43814;BME280;29669;55.706;37.656;2022-09-13T18:46:36;99410.00;;;13.61;53.91
43814;BME280;29669;55.706;37.656;2022-09-13T18:49:57;99413.81;;;13.59;54.08
43814;BME280;29669;55.706;37.656;2022-09-13T18:53:22;99386.69;;;13.53;54.10
43814;BME280;29669;55.706;37.656;2022-09-13T18:56:46;99389.25;;;13.47;54.60
43814;BME280;29669;55.706;37.656;2022-09-13T19:00:01;99385.41;;;13.43;54.82
43814;BME280;29669;55.706;37.656;2022-09-13T19:03:16;99376.97;;;13.41;54.94
43814;BME280;29669;55.706;37.656;2022-09-13T19:06:41;99371.75;;;13.41;55.01
43814;BME280;29669;55.706;37.656;2022-09-13T19:10:03;99362.97;;;13.42;55.31
43814;BME280;29669;55.706;37.656;2022-09-13T19:13:24;99367.38;;;13.41;55.08
43814;BME280;29669;55.706;37.656;2022-09-13T19:16:45;99349.34;;;13.46;54.93
43814;BME280;29669;55.706;37.656;2022-09-13T19:20:06;99342.94;;;13.49;55.04
43814;BME280;29669;55.706;37.656;2022-09-13T19:23:27;99345.13;;;13.45;55.15
43814;BME280;29669;55.706;37.656;2022-09-13T19:27:05;99339.31;;;13.43;55.24
43814;BME280;29669;55.706;37.656;2022-09-13T19:30:27;99330.66;;;13.43;55.22
43814;BME280;29669;55.706;37.656;2022-09-13T19:33:49;99322.22;;;13.41;55.34
43814;BME280;29669;55.706;37.656;2022-09-13T19:37:11;99311.81;;;13.41;55.41
43814;BME280;29669;55.706;37.656;2022-09-13T19:40:32;99310.00;;;13.41;55.46
43814;BME280;29669;55.706;37.656;2022-09-13T19:43:55;99315.41;;;13.40;55.71
43814;BME280;29669;55.706;37.656;2022-09-13T19:47:16;99317.41;;;13.38;55.68
43814;BME280;29669;55.706;37.656;2022-09-13T19:51:05;99304.78;;;13.41;55.50
43814;BME280;29669;55.706;37.656;2022-09-13T19:54:30;99308.22;;;13.42;55.75
43814;BME280;29669;55.706;37.656;2022-09-13T19:57:51;99296.97;;;13.41;55.74
43814;BME280;29669;55.706;37.656;2022-09-13T20:01:15;99293.16;;;13.44;55.80
43814;BME280;29669;55.706;37.656;2022-09-13T20:04:36;99282.56;;;13.45;55.67
43814;BME280;29669;55.706;37.656;2022-09-13T20:07:58;99277.75;;;13.49;55.78
43814;BME280;29669;55.706;37.656;2022-09-13T20:11:20;99276.53;;;13.45;55.83
43814;BME280;29669;55.706;37.656;2022-09-13T20:14:47;99266.66;;;13.40;55.83
43814;BME280;29669;55.706;37.656;2022-09-13T20:18:08;99271.09;;;13.40;56.05
43814;BME280;29669;55.706;37.656;2022-09-13T20:21:30;99258.69;;;13.42;56.12
43814;BME280;29669;55.706;37.656;2022-09-13T20:24:53;99253.84;;;13.39;56.22
43814;BME280;29669;55.706;37.656;2022-09-13T20:28:15;99257.06;;;13.41;56.42
43814;BME280;29669;55.706;37.656;2022-09-13T20:31:36;99254.84;;;13.38;56.58
43814;BME280;29669;55.706;37.656;2022-09-13T20:34:57;99248.22;;;13.35;56.55
43814;BME280;29669;55.706;37.656;2022-09-13T20:38:18;99250.63;;;13.37;56.81
43814;BME280;29669;55.706;37.656;2022-09-13T20:41:39;99241.81;;;13.38;56.85
43814;BME280;29669;55.706;37.656;2022-09-13T20:45:02;99246.41;;;13.36;56.86
43814;BME280;29669;55.706;37.656;2022-09-13T20:48:23;99241.34;;;13.28;57.47
43814;BME280;29669;55.706;37.656;2022-09-13T20:51:44;99235.69;;;13.17;57.87
43814;BME280;29669;55.706;37.656;2022-09-13T20:55:06;99224.63;;;13.15;58.13
43814;BME280;29669;55.706;37.656;2022-09-13T20:58:27;99225.66;;;13.14;58.17
43814;BME280;29669;55.706;37.656;2022-09-13T21:01:48;99222.81;;;13.09;58.31
43814;BME280;29669;55.706;37.656;2022-09-13T21:05:09;99219.78;;;13.06;58.43
43814;BME280;29669;55.706;37.656;2022-09-13T21:08:30;99215.38;;;13.06;58.43